sensor_id;sensor_type;location;lat;lon;timestamp;pressure;altitude;pressure_sealevel;temperature;humidity
67430;BME280;54298;52.076;5.264;2022-11-15T00:00:16;100777.0;;;8.44;80.8
67430;BME280;54298;52.076;5.264;2022-11-15T00:03:29;100772.0;;;8.49;80.89
67430;BME280;54298;52.076;5.264;2022-11-15T00:05:06;100767.0;;;8.56;80.81
67430;BME280;54298;52.076;5.264;2022-11-15T00:06:42;100764.0;;;8.48;81.27
67430;BME280;54298;52.076;5.264;2022-11-15T00:08:18;100764.0;;;8.5;81.58
67430;BME280;54298;52.076;5.264;2022-11-15T00:11:32;100768.0;;;8.47;81.8
67430;BME280;54298;52.076;5.264;2022-11-15T00:13:09;100767.0;;;8.47;81.89
67430;BME280;54298;52.076;5.264;2022-11-15T00:14:46;100770.0;;;8.52;82.03
67430;BME280;54298;52.076;5.264;2022-11-15T00:17:59;100769.0;;;8.39;82.75
67430;BME280;54298;52.076;5.264;2022-11-15T00:19:35;100766.0;;;8.43;83.13
67430;BME280;54298;52.076;5.264;2022-11-15T00:21:13;100762.0;;;8.56;82.61
67430;BME280;54298;52.076;5.264;2022-11-15T00:22:52;100761.0;;;8.56;82.53
67430;BME280;54298;52.076;5.264;2022-11-15T00:26:05;100757.0;;;8.51;82.69
67430;BME280;54298;52.076;5.264;2022-11-15T00:27:41;100755.0;;;8.44;83.5
67430;BME280;54298;52.076;5.264;2022-11-15T00:29:17;100762.0;;;8.24;84.88
67430;BME280;54298;52.076;5.264;2022-11-15T00:32:35;100756.0;;;8.36;84.34
67430;BME280;54298;52.076;5.264;2022-11-15T00:34:11;100748.0;;;8.44;83.9
67430;BME280;54298;52.076;5.264;2022-11-15T00:35:47;100750.0;;;8.52;83.79
67430;BME280;54298;52.076;5.264;2022-11-15T00:38:59;100745.0;;;8.6;83.37
67430;BME280;54298;52.076;5.264;2022-11-15T00:40:35;100747.0;;;8.22;85.08
67430;BME280;54298;52.076;5.264;2022-11-15T00:42:11;100746.0;;;8.48;84.4
67430;BME280;54298;52.076;5.264;2022-11-15T00:43:48;100745.0;;;8.52;84.48
67430;BME280;54298;52.076;5.264;2022-11-15T00:47:01;100745.0;;;8.48;84.41
67430;BME280;54298;52.076;5.264;2022-11-15T00:48:37;100741.0;;;8.51;84.38
67430;BME280;54298;52.076;5.264;2022-11-15T00:50:13;100740.0;;;8.6;84.3
67430;BME280;54298;52.076;5.264;2022-11-15T00:53:27;100736.0;;;8.55;84.39
67430;BME280;54298;52.076;5.264;2022-11-15T00:55:04;100740.0;;;8.61;84.54
67430;BME280;54298;52.076;5.264;2022-11-15T00:56:40;100740.0;;;8.47;85.47
67430;BME280;54298;52.076;5.264;2022-11-15T00:59:52;100731.0;;;8.48;85.07
67430;BME280;54298;52.076;5.264;2022-11-15T01:01:28;100734.0;;;8.47;85.5
67430;BME280;54298;52.076;5.264;2022-11-15T01:03:05;100735.0;;;8.53;85.18
67430;BME280;54298;52.076;5.264;2022-11-15T01:06:17;100730.0;;;8.53;85.24
67430;BME280;54298;52.076;5.264;2022-11-15T01:07:53;100730.0;;;8.6;85.04
67430;BME280;54298;52.076;5.264;2022-11-15T01:09:31;100722.0;;;8.63;85.18
67430;BME280;54298;52.076;5.264;2022-11-15T01:11:10;100723.0;;;8.64;85.32
67430;BME280;54298;52.076;5.264;2022-11-15T01:14:23;100721.0;;;8.64;85.3
67430;BME280;54298;52.076;5.264;2022-11-15T01:16:05;100722.0;;;8.67;85.33
67430;BME280;54298;52.076;5.264;2022-11-15T01:17:41;100717.0;;;8.76;85.08
67430;BME280;54298;52.076;5.264;2022-11-15T01:20:53;100716.0;;;8.74;85.54
67430;BME280;54298;52.076;5.264;2022-11-15T01:22:30;100707.0;;;8.89;84.98
67430;BME280;54298;52.076;5.264;2022-11-15T01:24:07;100713.0;;;8.81;85.29
67430;BME280;54298;52.076;5.264;2022-11-15T01:25:44;100714.0;;;8.8;85.2
67430;BME280;54298;52.076;5.264;2022-11-15T01:28:56;100715.0;;;8.83;85.36
67430;BME280;54298;52.076;5.264;2022-11-15T01:30:32;100715.0;;;8.89;85.12
67430;BME280;54298;52.076;5.264;2022-11-15T01:32:08;100712.0;;;8.98;84.72
67430;BME280;54298;52.076;5.264;2022-11-15T01:35:23;100715.0;;;8.91;85.11
67430;BME280;54298;52.076;5.264;2022-11-15T01:36:59;100705.0;;;8.73;85.94
67430;BME280;54298;52.076;5.264;2022-11-15T01:38:36;100703.0;;;8.9;85.62
67430;BME280;54298;52.076;5.264;2022-11-15T01:41:50;100707.0;;;8.91;85.62
67430;BME280;54298;52.076;5.264;2022-11-15T01:43:31;100705.0;;;9.07;85.2
67430;BME280;54298;52.076;5.264;2022-11-15T01:46:51;100701.0;;;8.96;86.0
67430;BME280;54298;52.076;5.264;2022-11-15T01:50:10;100695.0;;;8.88;86.38
67430;BME280;54298;52.076;5.264;2022-11-15T01:51:51;100696.0;;;9.09;85.62
67430;BME280;54298;52.076;5.264;2022-11-15T01:53:29;100696.0;;;9.08;85.67
67430;BME280;54298;52.076;5.264;2022-11-15T01:55:09;100698.0;;;9.09;86.13
67430;BME280;54298;52.076;5.264;2022-11-15T01:58:30;100697.0;;;9.11;86.16
67430;BME280;54298;52.076;5.264;2022-11-15T02:00:08;100696.0;;;9.28;85.15
67430;BME280;54298;52.076;5.264;2022-11-15T02:01:46;100696.0;;;9.08;86.23
67430;BME280;54298;52.076;5.264;2022-11-15T02:03:26;100696.0;;;9.14;86.17
67430;BME280;54298;52.076;5.264;2022-11-15T02:06:46;100693.0;;;9.13;86.66
67430;BME280;54298;52.076;5.264;2022-11-15T02:08:24;100689.0;;;9.25;86.32
67430;BME280;54298;52.076;5.264;2022-11-15T02:10:06;100680.0;;;9.35;85.8
67430;BME280;54298;52.076;5.264;2022-11-15T02:11:46;100681.0;;;9.34;85.92
67430;BME280;54298;52.076;5.264;2022-11-15T02:15:01;100676.0;;;9.39;86.12
67430;BME280;54298;52.076;5.264;2022-11-15T02:16:53;100669.0;;;9.46;85.73
67430;BME280;54298;52.076;5.264;2022-11-15T02:18:35;100669.0;;;9.43;86.26
67430;BME280;54298;52.076;5.264;2022-11-15T02:20:31;100665.0;;;9.56;85.83
67430;BME280;54298;52.076;5.264;2022-11-15T02:22:37;100662.0;;;9.42;86.48
67430;BME280;54298;52.076;5.264;2022-11-15T02:24:35;100660.0;;;9.58;86.08
67430;BME280;54298;52.076;5.264;2022-11-15T02:26:50;100658.0;;;9.59;86.52
67430;BME280;54298;52.076;5.264;2022-11-15T02:28:49;100657.0;;;9.61;86.43
67430;BME280;54298;52.076;5.264;2022-11-15T02:30:38;100649.0;;;9.76;85.66
67430;BME280;54298;52.076;5.264;2022-11-15T02:34:05;100647.0;;;9.75;86.07
67430;BME280;54298;52.076;5.264;2022-11-15T02:35:53;100649.0;;;9.84;85.78
67430;BME280;54298;52.076;5.264;2022-11-15T02:37:41;100644.0;;;9.97;85.31
67430;BME280;54298;52.076;5.264;2022-11-15T02:39:25;100639.0;;;9.97;85.22
67430;BME280;54298;52.076;5.264;2022-11-15T02:41:09;100636.0;;;9.89;85.76
67430;BME280;54298;52.076;5.264;2022-11-15T02:45:52;100624.0;;;9.89;85.74
67430;BME280;54298;52.076;5.264;2022-11-15T02:47:35;100624.0;;;10.06;85.48
67430;BME280;54298;52.076;5.264;2022-11-15T02:49:18;100611.0;;;10.07;85.23
67430;BME280;54298;52.076;5.264;2022-11-15T02:52:32;100620.0;;;10.14;85.01
67430;BME280;54298;52.076;5.264;2022-11-15T02:54:11;100616.0;;;10.14;84.92
67430;BME280;54298;52.076;5.264;2022-11-15T02:55:51;100617.0;;;9.93;85.62
67430;BME280;54298;52.076;5.264;2022-11-15T02:59:41;100610.0;;;10.13;85.29
67430;BME280;54298;52.076;5.264;2022-11-15T03:01:38;100603.0;;;10.21;85.07
67430;BME280;54298;52.076;5.264;2022-11-15T03:03:33;100599.0;;;10.25;84.83
67430;BME280;54298;52.076;5.264;2022-11-15T03:05:22;100609.0;;;10.23;84.95
67430;BME280;54298;52.076;5.264;2022-11-15T03:07:06;100610.0;;;10.09;85.52
67430;BME280;54298;52.076;5.264;2022-11-15T03:08:54;100617.0;;;10.07;85.82
67430;BME280;54298;52.076;5.264;2022-11-15T03:10:42;100619.0;;;10.07;86.09
67430;BME280;54298;52.076;5.264;2022-11-15T03:12:26;100618.0;;;10.18;86.07
67430;BME280;54298;52.076;5.264;2022-11-15T03:16:00;100614.0;;;10.22;85.95
67430;BME280;54298;52.076;5.264;2022-11-15T03:17:46;100612.0;;;10.27;85.65
67430;BME280;54298;52.076;5.264;2022-11-15T03:19:31;100606.0;;;10.33;85.34
67430;BME280;54298;52.076;5.264;2022-11-15T03:21:11;100607.0;;;10.29;85.83
67430;BME280;54298;52.076;5.264;2022-11-15T03:22:51;100610.0;;;10.29;85.97
67430;BME280;54298;52.076;5.264;2022-11-15T03:26:14;100613.0;;;10.39;85.62
67430;BME280;54298;52.076;5.264;2022-11-15T03:27:53;100614.0;;;10.43;85.64
67430;BME280;54298;52.076;5.264;2022-11-15T03:29:36;100614.0;;;10.41;86.13
67430;BME280;54298;52.076;5.264;2022-11-15T03:31:53;100617.0;;;10.51;85.59
67430;BME280;54298;52.076;5.264;2022-11-15T03:34:03;100621.0;;;10.46;85.73
67430;BME280;54298;52.076;5.264;2022-11-15T03:35:43;100614.0;;;10.47;85.94
67430;BME280;54298;52.076;5.264;2022-11-15T03:39:07;100616.0;;;10.57;85.61
67430;BME280;54298;52.076;5.264;2022-11-15T03:40:48;100625.0;;;10.56;85.75
67430;BME280;54298;52.076;5.264;2022-11-15T03:42:32;100621.0;;;10.65;85.63
67430;BME280;54298;52.076;5.264;2022-11-15T03:44:17;100620.0;;;10.61;86.0
67430;BME280;54298;52.076;5.264;2022-11-15T03:46:01;100617.0;;;10.6;86.02
67430;BME280;54298;52.076;5.264;2022-11-15T03:49:22;100620.0;;;10.66;86.52
67430;BME280;54298;52.076;5.264;2022-11-15T03:51:02;100627.0;;;10.72;86.28
67430;BME280;54298;52.076;5.264;2022-11-15T03:52:41;100618.0;;;10.8;85.89
67430;BME280;54298;52.076;5.264;2022-11-15T03:54:18;100613.0;;;10.73;86.45
67430;BME280;54298;52.076;5.264;2022-11-15T03:57:31;100613.0;;;10.87;86.07
67430;BME280;54298;52.076;5.264;2022-11-15T03:59:07;100608.0;;;10.84;86.33
67430;BME280;54298;52.076;5.264;2022-11-15T04:00:43;100610.0;;;11.01;85.73
67430;BME280;54298;52.076;5.264;2022-11-15T04:03:55;100605.0;;;10.91;86.08
67430;BME280;54298;52.076;5.264;2022-11-15T04:05:31;100605.0;;;10.97;86.18
67430;BME280;54298;52.076;5.264;2022-11-15T04:07:07;100607.0;;;11.0;86.11
67430;BME280;54298;52.076;5.264;2022-11-15T04:10:20;100607.0;;;11.07;85.92
67430;BME280;54298;52.076;5.264;2022-11-15T04:11:56;100606.0;;;11.02;86.15
67430;BME280;54298;52.076;5.264;2022-11-15T04:13:32;100600.0;;;11.13;86.18
67430;BME280;54298;52.076;5.264;2022-11-15T04:15:10;100605.0;;;11.13;85.9
67430;BME280;54298;52.076;5.264;2022-11-15T04:18:24;100597.0;;;11.1;86.37
67430;BME280;54298;52.076;5.264;2022-11-15T04:24:14;100593.0;;;11.07;86.56
67430;BME280;54298;52.076;5.264;2022-11-15T04:25:52;100592.0;;;11.2;86.09
67430;BME280;54298;52.076;5.264;2022-11-15T04:29:38;100590.0;;;11.19;86.06
67430;BME280;54298;52.076;5.264;2022-11-15T04:31:14;100588.0;;;11.28;85.68
67430;BME280;54298;52.076;5.264;2022-11-15T04:32:50;100594.0;;;11.3;85.86
67430;BME280;54298;52.076;5.264;2022-11-15T04:34:27;100594.0;;;11.22;86.03
67430;BME280;54298;52.076;5.264;2022-11-15T04:37:20;100590.0;;;11.26;86.16
67430;BME280;54298;52.076;5.264;2022-11-15T04:38:58;100590.0;;;11.28;86.05
67430;BME280;54298;52.076;5.264;2022-11-15T04:40:35;100593.0;;;11.26;86.14
67430;BME280;54298;52.076;5.264;2022-11-15T04:43:48;100590.0;;;11.26;86.26
67430;BME280;54298;52.076;5.264;2022-11-15T04:45:25;100590.0;;;11.34;86.11
67430;BME280;54298;52.076;5.264;2022-11-15T04:47:01;100584.0;;;11.25;86.29
67430;BME280;54298;52.076;5.264;2022-11-15T04:48:38;100587.0;;;11.32;86.35
67430;BME280;54298;52.076;5.264;2022-11-15T04:51:52;100593.0;;;11.34;86.34
67430;BME280;54298;52.076;5.264;2022-11-15T04:55:05;100593.0;;;11.37;86.29
67430;BME280;54298;52.076;5.264;2022-11-15T04:58:18;100592.0;;;11.42;86.32
67430;BME280;54298;52.076;5.264;2022-11-15T04:59:54;100591.0;;;11.45;86.26
67430;BME280;54298;52.076;5.264;2022-11-15T05:01:30;100596.0;;;11.37;86.59
67430;BME280;54298;52.076;5.264;2022-11-15T05:06:00;100602.0;;;11.39;86.83
67430;BME280;54298;52.076;5.264;2022-11-15T05:07:36;100605.0;;;11.43;86.9
67430;BME280;54298;52.076;5.264;2022-11-15T05:10:49;100596.0;;;11.44;86.85
67430;BME280;54298;52.076;5.264;2022-11-15T05:12:25;100594.0;;;11.52;86.52
67430;BME280;54298;52.076;5.264;2022-11-15T05:14:02;100598.0;;;11.54;86.18
67430;BME280;54298;52.076;5.264;2022-11-15T05:17:14;100602.0;;;11.49;86.36
67430;BME280;54298;52.076;5.264;2022-11-15T05:18:50;100606.0;;;11.47;86.71
67430;BME280;54298;52.076;5.264;2022-11-15T05:20:27;100602.0;;;11.59;86.45
67430;BME280;54298;52.076;5.264;2022-11-15T05:22:03;100603.0;;;11.69;85.97
67430;BME280;54298;52.076;5.264;2022-11-15T05:25:17;100603.0;;;11.44;86.96
67430;BME280;54298;52.076;5.264;2022-11-15T05:26:53;100600.0;;;11.47;86.98
67430;BME280;54298;52.076;5.264;2022-11-15T05:28:29;100599.0;;;11.47;87.07
67430;BME280;54298;52.076;5.264;2022-11-15T05:31:43;100601.0;;;11.63;86.79
67430;BME280;54298;52.076;5.264;2022-11-15T05:33:19;100601.0;;;11.58;86.68
67430;BME280;54298;52.076;5.264;2022-11-15T05:34:56;100605.0;;;11.68;86.19
67430;BME280;54298;52.076;5.264;2022-11-15T05:38:13;100603.0;;;11.67;86.39
67430;BME280;54298;52.076;5.264;2022-11-15T05:39:49;100603.0;;;11.73;86.02
67430;BME280;54298;52.076;5.264;2022-11-15T05:41:29;100606.0;;;11.79;85.83
67430;BME280;54298;52.076;5.264;2022-11-15T05:43:09;100603.0;;;11.79;85.74
67430;BME280;54298;52.076;5.264;2022-11-15T05:46:27;100610.0;;;11.82;85.61
67430;BME280;54298;52.076;5.264;2022-11-15T05:48:06;100612.0;;;11.8;85.75
67430;BME280;54298;52.076;5.264;2022-11-15T05:49:46;100615.0;;;11.8;86.06
67430;BME280;54298;52.076;5.264;2022-11-15T05:51:23;100613.0;;;11.83;85.74
67430;BME280;54298;52.076;5.264;2022-11-15T05:54:38;100613.0;;;11.88;85.6
67430;BME280;54298;52.076;5.264;2022-11-15T05:56:15;100613.0;;;11.82;85.8
67430;BME280;54298;52.076;5.264;2022-11-15T05:57:52;100612.0;;;11.81;86.08
67430;BME280;54298;52.076;5.264;2022-11-15T06:01:06;100616.0;;;11.83;86.27
67430;BME280;54298;52.076;5.264;2022-11-15T06:02:42;100611.0;;;11.93;85.79
67430;BME280;54298;52.076;5.264;2022-11-15T06:04:18;100620.0;;;12.02;85.68
67430;BME280;54298;52.076;5.264;2022-11-15T06:07:32;100615.0;;;11.94;85.95
67430;BME280;54298;52.076;5.264;2022-11-15T06:09:09;100613.0;;;12.04;85.61
67430;BME280;54298;52.076;5.264;2022-11-15T06:10:45;100612.0;;;12.04;85.59
67430;BME280;54298;52.076;5.264;2022-11-15T06:12:21;100614.0;;;11.99;86.01
67430;BME280;54298;52.076;5.264;2022-11-15T06:15:33;100621.0;;;12.02;85.98
67430;BME280;54298;52.076;5.264;2022-11-15T06:17:10;100618.0;;;12.06;85.72
67430;BME280;54298;52.076;5.264;2022-11-15T06:18:47;100619.0;;;11.93;86.68
67430;BME280;54298;52.076;5.264;2022-11-15T06:21:59;100619.0;;;11.98;86.3
67430;BME280;54298;52.076;5.264;2022-11-15T06:23:35;100621.0;;;12.13;85.62
67430;BME280;54298;52.076;5.264;2022-11-15T06:25:12;100631.0;;;12.07;85.81
67430;BME280;54298;52.076;5.264;2022-11-15T06:28:24;100630.0;;;11.99;86.31
67430;BME280;54298;52.076;5.264;2022-11-15T06:30:00;100624.0;;;12.04;86.35
67430;BME280;54298;52.076;5.264;2022-11-15T06:31:36;100627.0;;;12.12;85.73
67430;BME280;54298;52.076;5.264;2022-11-15T06:33:12;100622.0;;;12.04;85.98
67430;BME280;54298;52.076;5.264;2022-11-15T06:36:24;100627.0;;;12.04;85.95
67430;BME280;54298;52.076;5.264;2022-11-15T06:38:03;100627.0;;;12.08;85.87
67430;BME280;54298;52.076;5.264;2022-11-15T06:39:40;100624.0;;;12.07;85.6
67430;BME280;54298;52.076;5.264;2022-11-15T06:42:57;100628.0;;;12.02;86.16
67430;BME280;54298;52.076;5.264;2022-11-15T06:44:34;100633.0;;;12.1;85.84
67430;BME280;54298;52.076;5.264;2022-11-15T06:46:10;100634.0;;;12.03;86.11
67430;BME280;54298;52.076;5.264;2022-11-15T06:47:47;100640.0;;;12.09;85.93
67430;BME280;54298;52.076;5.264;2022-11-15T06:51:01;100638.0;;;12.11;86.13
67430;BME280;54298;52.076;5.264;2022-11-15T06:52:39;100644.0;;;12.07;86.12
67430;BME280;54298;52.076;5.264;2022-11-15T06:54:15;100646.0;;;12.11;86.02
67430;BME280;54298;52.076;5.264;2022-11-15T06:57:28;100648.0;;;12.12;85.86
67430;BME280;54298;52.076;5.264;2022-11-15T06:59:04;100644.0;;;12.08;85.8
67430;BME280;54298;52.076;5.264;2022-11-15T07:00:41;100658.0;;;12.15;85.9
67430;BME280;54298;52.076;5.264;2022-11-15T07:03:54;100658.0;;;12.14;85.94
67430;BME280;54298;52.076;5.264;2022-11-15T07:05:30;100660.0;;;12.19;85.83
67430;BME280;54298;52.076;5.264;2022-11-15T07:07:07;100660.0;;;12.23;85.6
67430;BME280;54298;52.076;5.264;2022-11-15T07:08:43;100656.0;;;12.36;85.0
67430;BME280;54298;52.076;5.264;2022-11-15T07:11:57;100652.0;;;12.24;85.56
67430;BME280;54298;52.076;5.264;2022-11-15T07:13:34;100663.0;;;12.19;85.42
67430;BME280;54298;52.076;5.264;2022-11-15T07:15:11;100661.0;;;12.17;85.67
67430;BME280;54298;52.076;5.264;2022-11-15T07:18:23;100660.0;;;12.2;84.95
67430;BME280;54298;52.076;5.264;2022-11-15T07:19:59;100657.0;;;12.24;84.88
67430;BME280;54298;52.076;5.264;2022-11-15T07:21:36;100663.0;;;12.32;84.49
67430;BME280;54298;52.076;5.264;2022-11-15T07:24:49;100662.0;;;12.35;84.59
67430;BME280;54298;52.076;5.264;2022-11-15T07:26:25;100663.0;;;12.24;84.9
67430;BME280;54298;52.076;5.264;2022-11-15T07:28:02;100668.0;;;12.33;84.34
67430;BME280;54298;52.076;5.264;2022-11-15T07:29:38;100663.0;;;12.18;84.81
67430;BME280;54298;52.076;5.264;2022-11-15T07:32:52;100666.0;;;12.25;84.4
67430;BME280;54298;52.076;5.264;2022-11-15T07:34:30;100661.0;;;12.26;84.53
67430;BME280;54298;52.076;5.264;2022-11-15T07:36:07;100664.0;;;12.1;85.14
67430;BME280;54298;52.076;5.264;2022-11-15T07:39:29;100662.0;;;12.27;84.85
67430;BME280;54298;52.076;5.264;2022-11-15T07:41:06;100661.0;;;12.3;84.6
67430;BME280;54298;52.076;5.264;2022-11-15T07:42:59;100657.0;;;12.29;84.57
67430;BME280;54298;52.076;5.264;2022-11-15T07:44:35;100659.0;;;12.28;84.45
67430;BME280;54298;52.076;5.264;2022-11-15T07:47:48;100652.0;;;12.29;84.44
67430;BME280;54298;52.076;5.264;2022-11-15T07:49:25;100642.0;;;12.35;84.08
67430;BME280;54298;52.076;5.264;2022-11-15T07:51:01;100640.0;;;12.31;83.79
67430;BME280;54298;52.076;5.264;2022-11-15T07:52:38;100646.0;;;12.25;83.66
67430;BME280;54298;52.076;5.264;2022-11-15T07:55:50;100648.0;;;12.24;84.07
67430;BME280;54298;52.076;5.264;2022-11-15T07:57:27;100656.0;;;12.27;84.1
67430;BME280;54298;52.076;5.264;2022-11-15T07:59:03;100655.0;;;12.19;84.57
67430;BME280;54298;52.076;5.264;2022-11-15T08:02:17;100651.0;;;12.22;84.67
67430;BME280;54298;52.076;5.264;2022-11-15T08:03:54;100651.0;;;12.23;84.77
67430;BME280;54298;52.076;5.264;2022-11-15T08:05:31;100659.0;;;12.3;84.2
67430;BME280;54298;52.076;5.264;2022-11-15T08:08:43;100648.0;;;12.35;84.11
67430;BME280;54298;52.076;5.264;2022-11-15T08:10:20;100646.0;;;12.35;83.98
67430;BME280;54298;52.076;5.264;2022-11-15T08:11:56;100641.0;;;12.29;84.33
67430;BME280;54298;52.076;5.264;2022-11-15T08:13:32;100637.0;;;12.31;84.09
67430;BME280;54298;52.076;5.264;2022-11-15T08:16:45;100640.0;;;12.33;83.82
67430;BME280;54298;52.076;5.264;2022-11-15T08:18:21;100642.0;;;12.28;83.99
67430;BME280;54298;52.076;5.264;2022-11-15T08:19:58;100644.0;;;12.29;84.04
67430;BME280;54298;52.076;5.264;2022-11-15T08:23:11;100640.0;;;12.35;83.95
67430;BME280;54298;52.076;5.264;2022-11-15T08:24:48;100643.0;;;12.25;83.98
67430;BME280;54298;52.076;5.264;2022-11-15T08:26:26;100635.0;;;12.36;83.73
67430;BME280;54298;52.076;5.264;2022-11-15T08:29:44;100638.0;;;12.44;83.0
67430;BME280;54298;52.076;5.264;2022-11-15T08:31:20;100638.0;;;12.41;83.02
67430;BME280;54298;52.076;5.264;2022-11-15T08:32:57;100638.0;;;12.32;83.6
67430;BME280;54298;52.076;5.264;2022-11-15T08:34:34;100631.0;;;12.29;83.53
67430;BME280;54298;52.076;5.264;2022-11-15T08:37:52;100634.0;;;12.36;83.41
67430;BME280;54298;52.076;5.264;2022-11-15T08:39:29;100625.0;;;12.32;83.52
67430;BME280;54298;52.076;5.264;2022-11-15T08:41:06;100621.0;;;12.34;83.34
67430;BME280;54298;52.076;5.264;2022-11-15T08:44:21;100621.0;;;12.4;82.97
67430;BME280;54298;52.076;5.264;2022-11-15T08:45:58;100618.0;;;12.42;82.96
67430;BME280;54298;52.076;5.264;2022-11-15T08:47:34;100612.0;;;12.37;82.92
67430;BME280;54298;52.076;5.264;2022-11-15T08:49:11;100612.0;;;12.27;82.69
67430;BME280;54298;52.076;5.264;2022-11-15T08:52:23;100612.0;;;12.42;82.42
67430;BME280;54298;52.076;5.264;2022-11-15T08:53:59;100614.0;;;12.36;82.34
67430;BME280;54298;52.076;5.264;2022-11-15T08:55:36;100616.0;;;12.44;82.3
67430;BME280;54298;52.076;5.264;2022-11-15T08:58:51;100609.0;;;12.41;82.69
67430;BME280;54298;52.076;5.264;2022-11-15T09:00:27;100613.0;;;12.61;81.89
67430;BME280;54298;52.076;5.264;2022-11-15T09:02:04;100615.0;;;12.47;82.19
67430;BME280;54298;52.076;5.264;2022-11-15T09:05:19;100616.0;;;12.48;82.27
67430;BME280;54298;52.076;5.264;2022-11-15T09:06:55;100615.0;;;12.55;82.07
67430;BME280;54298;52.076;5.264;2022-11-15T09:08:31;100616.0;;;12.65;81.83
67430;BME280;54298;52.076;5.264;2022-11-15T09:10:08;100618.0;;;12.71;81.44
67430;BME280;54298;52.076;5.264;2022-11-15T09:13:20;100615.0;;;12.71;81.37
67430;BME280;54298;52.076;5.264;2022-11-15T09:14:58;100611.0;;;12.59;81.98
67430;BME280;54298;52.076;5.264;2022-11-15T09:16:34;100610.0;;;12.6;81.41
67430;BME280;54298;52.076;5.264;2022-11-15T09:19:46;100612.0;;;12.69;81.41
67430;BME280;54298;52.076;5.264;2022-11-15T09:21:21;100607.0;;;12.79;80.98
67430;BME280;54298;52.076;5.264;2022-11-15T09:22:59;100610.0;;;12.88;80.58
67430;BME280;54298;52.076;5.264;2022-11-15T09:26:12;100602.0;;;12.9;80.27
67430;BME280;54298;52.076;5.264;2022-11-15T09:27:49;100599.0;;;12.57;81.3
67430;BME280;54298;52.076;5.264;2022-11-15T09:29:25;100599.0;;;12.56;81.66
67430;BME280;54298;52.076;5.264;2022-11-15T09:34:18;100587.0;;;12.56;81.09
67430;BME280;54298;52.076;5.264;2022-11-15T09:35:54;100592.0;;;12.71;80.22
67430;BME280;54298;52.076;5.264;2022-11-15T09:37:35;100593.0;;;12.71;80.12
67430;BME280;54298;52.076;5.264;2022-11-15T09:40:51;100593.0;;;12.54;80.56
67430;BME280;54298;52.076;5.264;2022-11-15T09:42:55;100588.0;;;12.68;79.91
67430;BME280;54298;52.076;5.264;2022-11-15T09:44:44;100578.0;;;12.54;80.3
67430;BME280;54298;52.076;5.264;2022-11-15T09:46:31;100588.0;;;12.53;79.8
67430;BME280;54298;52.076;5.264;2022-11-15T09:48:35;100591.0;;;12.46;80.06
67430;BME280;54298;52.076;5.264;2022-11-15T09:50:32;100589.0;;;12.39;80.13
67430;BME280;54298;52.076;5.264;2022-11-15T09:52:11;100590.0;;;12.37;79.77
67430;BME280;54298;52.076;5.264;2022-11-15T09:55:37;100590.0;;;12.54;78.98
67430;BME280;54298;52.076;5.264;2022-11-15T09:57:37;100590.0;;;12.59;78.41
67430;BME280;54298;52.076;5.264;2022-11-15T09:59:27;100590.0;;;12.44;78.49
67430;BME280;54298;52.076;5.264;2022-11-15T10:01:42;100591.0;;;12.37;78.31
67430;BME280;54298;52.076;5.264;2022-11-15T10:03:29;100591.0;;;12.42;78.31
67430;BME280;54298;52.076;5.264;2022-11-15T10:05:11;100593.0;;;12.33;78.56
67430;BME280;54298;52.076;5.264;2022-11-15T10:07:02;100588.0;;;12.43;77.83
67430;BME280;54298;52.076;5.264;2022-11-15T10:08:52;100584.0;;;12.57;77.69
67430;BME280;54298;52.076;5.264;2022-11-15T10:12:15;100581.0;;;12.56;77.39
67430;BME280;54298;52.076;5.264;2022-11-15T10:13:55;100590.0;;;12.49;77.09
67430;BME280;54298;52.076;5.264;2022-11-15T10:15:35;100581.0;;;12.44;76.31
67430;BME280;54298;52.076;5.264;2022-11-15T10:18:29;100575.0;;;12.41;76.72
67430;BME280;54298;52.076;5.264;2022-11-15T10:20:13;100569.0;;;12.47;76.44
67430;BME280;54298;52.076;5.264;2022-11-15T10:22:00;100578.0;;;12.56;76.12
67430;BME280;54298;52.076;5.264;2022-11-15T10:23:44;100565.0;;;12.66;75.64
67430;BME280;54298;52.076;5.264;2022-11-15T10:25:22;100566.0;;;12.69;75.19
67430;BME280;54298;52.076;5.264;2022-11-15T10:28:37;100561.0;;;12.61;74.86
67430;BME280;54298;52.076;5.264;2022-11-15T10:30:15;100557.0;;;12.63;74.86
67430;BME280;54298;52.076;5.264;2022-11-15T10:31:53;100550.0;;;12.62;75.08
67430;BME280;54298;52.076;5.264;2022-11-15T10:35:26;100542.0;;;12.74;74.2
67430;BME280;54298;52.076;5.264;2022-11-15T10:37:03;100548.0;;;12.81;73.69
67430;BME280;54298;52.076;5.264;2022-11-15T10:38:52;100555.0;;;12.75;73.78
67430;BME280;54298;52.076;5.264;2022-11-15T10:40:29;100550.0;;;12.89;73.48
67430;BME280;54298;52.076;5.264;2022-11-15T10:42:27;100546.0;;;12.65;73.55
67430;BME280;54298;52.076;5.264;2022-11-15T10:46:20;100542.0;;;12.84;73.27
67430;BME280;54298;52.076;5.264;2022-11-15T10:48:21;100534.0;;;12.73;73.34
67430;BME280;54298;52.076;5.264;2022-11-15T10:50:03;100531.0;;;12.79;73.05
67430;BME280;54298;52.076;5.264;2022-11-15T10:51:45;100524.0;;;12.69;73.23
67430;BME280;54298;52.076;5.264;2022-11-15T10:53:28;100528.0;;;12.98;72.53
67430;BME280;54298;52.076;5.264;2022-11-15T10:57:05;100517.0;;;12.8;72.05
67430;BME280;54298;52.076;5.264;2022-11-15T11:00:30;100515.0;;;12.94;72.08
67430;BME280;54298;52.076;5.264;2022-11-15T11:02:29;100519.0;;;12.89;71.55
67430;BME280;54298;52.076;5.264;2022-11-15T11:04:11;100512.0;;;12.88;70.88
67430;BME280;54298;52.076;5.264;2022-11-15T11:05:47;100513.0;;;12.91;71.02
67430;BME280;54298;52.076;5.264;2022-11-15T11:07:25;100506.0;;;12.97;70.7
67430;BME280;54298;52.076;5.264;2022-11-15T11:10:52;100506.0;;;13.02;70.8
67430;BME280;54298;52.076;5.264;2022-11-15T11:12:32;100498.0;;;13.09;70.44
67430;BME280;54298;52.076;5.264;2022-11-15T11:14:11;100500.0;;;13.2;70.58
67430;BME280;54298;52.076;5.264;2022-11-15T11:15:56;100500.0;;;13.24;70.42
67430;BME280;54298;52.076;5.264;2022-11-15T11:17:57;100500.0;;;13.27;70.41
67430;BME280;54298;52.076;5.264;2022-11-15T11:21:41;100498.0;;;13.29;70.22
67430;BME280;54298;52.076;5.264;2022-11-15T11:23:36;100489.0;;;13.34;70.06
67430;BME280;54298;52.076;5.264;2022-11-15T11:25:25;100490.0;;;13.41;69.66